createdAt,value
2019-03-20T00:04:49.680Z,67.56
2019-03-20T00:09:48.370Z,68.72
2019-03-20T00:14:51.859Z,67.16
2019-03-20T00:19:55.263Z,67.59
2019-03-20T00:24:58.805Z,65.89
2019-03-20T00:30:02.325Z,65.69
2019-03-20T00:35:06.080Z,67.15
2019-03-20T00:40:10.607Z,66.98
2019-03-20T00:45:14.080Z,66.90
2019-03-20T00:50:17.657Z,68.07
2019-03-20T00:55:21.096Z,66.92
2019-03-20T01:00:24.582Z,68.49
2019-03-20T01:05:28.130Z,67.53
2019-03-20T01:10:32.685Z,67.98
2019-03-20T01:15:36.140Z,68.59
2019-03-20T01:20:39.618Z,68.83
2019-03-20T01:25:43.313Z,68.35
2019-03-20T01:30:46.736Z,68.61
2019-03-20T01:35:50.243Z,68.29
2019-03-20T01:40:53.667Z,67.52
2019-03-20T01:45:57.201Z,67.33
2019-03-20T01:51:10.573Z,67.33
2019-03-20T01:56:14.073Z,67.16
2019-03-20T02:01:17.515Z,68.18
2019-03-20T02:06:21.029Z,67.16
2019-03-20T02:11:24.432Z,68.12
2019-03-20T02:16:27.927Z,68.81
2019-03-20T02:21:31.353Z,68.29
2019-03-20T02:26:34.852Z,67.70
2019-03-20T02:31:38.310Z,68.59
2019-03-20T02:36:41.796Z,69.57
2019-03-20T02:41:45.240Z,69.09
2019-03-20T02:46:48.695Z,68.78
2019-03-20T02:51:52.225Z,70.29
2019-03-20T02:56:55.606Z,70.76
2019-03-20T03:01:59.084Z,70.79
2019-03-20T03:07:02.515Z,70.76
2019-03-20T03:12:05.953Z,71.51
2019-03-20T03:17:11.449Z,70.73
2019-03-20T03:22:14.928Z,71.23
2019-03-20T03:27:18.401Z,70.63
2019-03-20T03:32:21.993Z,71.31
2019-03-20T03:37:25.575Z,70.26
2019-03-20T03:42:29.141Z,71.05
2019-03-20T03:47:32.640Z,71.37
2019-03-20T03:52:36.154Z,71.11
2019-03-20T03:57:39.802Z,71.61
2019-03-20T04:02:43.235Z,70.10
2019-03-20T04:07:46.687Z,70.37
2019-03-20T04:12:50.122Z,71.99
2019-03-20T04:17:53.579Z,71.38
2019-03-20T04:22:57.145Z,72.30
2019-03-20T04:28:00.634Z,70.68
2019-03-20T04:33:04.262Z,71.98
2019-03-20T04:38:07.661Z,71.42
2019-03-20T04:43:11.077Z,70.87
2019-03-20T04:48:14.552Z,70.18
2019-03-20T04:53:18.003Z,71.55
2019-03-20T04:58:21.416Z,71.67
2019-03-20T05:03:24.951Z,70.46
2019-03-20T05:08:28.467Z,71.86
2019-03-20T05:13:31.974Z,72.28
2019-03-20T05:18:35.464Z,70.78
2019-03-20T05:23:38.889Z,71.06
2019-03-20T05:28:42.322Z,72.50
2019-03-20T05:33:45.801Z,71.81
2019-03-20T05:38:49.238Z,71.09
2019-03-20T05:43:52.713Z,71.84
2019-03-20T05:48:56.125Z,69.92
2019-03-20T05:53:59.722Z,71.01
2019-03-20T05:59:06.934Z,71.56
2019-03-20T06:04:10.369Z,71.16
2019-03-20T06:09:13.812Z,72.65
2019-03-20T06:14:17.281Z,71.99
2019-03-20T06:19:20.705Z,72.19
2019-03-20T06:24:24.229Z,71.71
2019-03-20T06:29:27.646Z,71.12
2019-03-20T06:34:31.237Z,71.00
2019-03-20T06:39:34.757Z,71.41
2019-03-20T06:44:38.180Z,70.51
2019-03-20T06:49:42.600Z,71.01
2019-03-20T06:54:46.120Z,70.53
2019-03-20T07:00:05.499Z,70.42
2019-03-20T07:05:18.262Z,69.38
2019-03-20T07:10:30.917Z,69.69
2019-03-20T07:15:34.349Z,69.06
2019-03-20T07:20:37.792Z,68.49
2019-03-20T07:25:41.269Z,66.93
2019-03-20T07:30:44.703Z,67.45
2019-03-20T07:35:48.136Z,67.07
2019-03-20T07:40:51.530Z,66.03
2019-03-20T07:45:54.962Z,65.80
2019-03-20T07:50:58.410Z,64.03
2019-03-20T07:56:01.864Z,63.93
2019-03-20T08:01:05.412Z,64.38
2019-03-20T08:06:08.889Z,63.18
2019-03-20T08:11:12.388Z,62.90
2019-03-20T08:16:16.808Z,61.65
2019-03-20T08:21:20.227Z,61.65
2019-03-20T08:26:23.631Z,60.95
2019-03-20T08:31:27.014Z,57.64
2019-03-20T08:36:30.440Z,57.45
2019-03-20T08:41:33.885Z,54.70
2019-03-20T08:46:37.445Z,55.45
2019-03-20T08:51:40.947Z,52.78
2019-03-20T08:56:44.654Z,47.91
2019-03-20T09:01:48.237Z,45.13
2019-03-20T09:06:51.705Z,43.28
2019-03-20T09:11:55.100Z,44.92
2019-03-20T09:16:58.740Z,41.61
2019-03-20T09:22:02.214Z,41.07
2019-03-20T09:27:05.640Z,42.02
2019-03-20T09:32:09.656Z,40.91
2019-03-20T09:37:13.148Z,37.92
2019-03-20T09:42:16.548Z,38.71
2019-03-20T09:47:20.065Z,38.18
2019-03-20T09:52:23.581Z,38.14
2019-03-20T09:57:27.185Z,37.46
2019-03-20T10:02:30.796Z,37.89
2019-03-20T10:07:34.251Z,35.12
2019-03-20T10:12:37.707Z,35.24
2019-03-20T10:17:41.185Z,35.65
2019-03-20T10:22:44.652Z,34.60
2019-03-20T10:27:48.068Z,35.61
2019-03-20T10:32:51.490Z,34.81
2019-03-20T10:37:54.942Z,34.72
2019-03-20T10:42:58.544Z,36.08
2019-03-20T10:48:02.024Z,34.39
2019-03-20T10:53:05.716Z,32.94
2019-03-20T10:58:09.326Z,34.94
2019-03-20T11:03:12.830Z,33.77
2019-03-20T11:08:16.328Z,32.56
2019-03-20T11:13:20.941Z,32.88
2019-03-20T11:18:24.403Z,34.07
2019-03-20T11:23:27.936Z,32.94
2019-03-20T11:28:31.620Z,31.09
2019-03-20T11:33:35.163Z,31.10
2019-03-20T11:38:38.757Z,32.74
2019-03-20T11:43:42.277Z,31.69
2019-03-20T11:48:45.785Z,32.69
2019-03-20T11:53:49.975Z,33.45
2019-03-20T11:58:53.678Z,33.57
2019-03-20T12:03:58.281Z,30.15
2019-03-20T12:09:01.813Z,31.86
2019-03-20T12:14:05.576Z,30.33
2019-03-20T12:19:10.173Z,29.14
2019-03-20T12:24:13.741Z,31.46
2019-03-20T12:29:18.388Z,31.64
2019-03-20T12:34:21.893Z,30.47
2019-03-20T12:39:26.448Z,30.30
2019-03-20T12:44:30.321Z,28.39
2019-03-20T12:49:33.882Z,30.62
2019-03-20T12:54:37.385Z,32.16
2019-03-20T12:59:40.879Z,31.27
2019-03-20T13:04:44.349Z,32.74
2019-03-20T13:09:47.821Z,30.42
2019-03-20T13:14:51.312Z,29.61
2019-03-20T13:19:54.944Z,30.06
2019-03-20T13:24:58.437Z,28.42
2019-03-20T13:30:01.893Z,30.58
2019-03-20T13:35:05.853Z,28.80
2019-03-20T13:40:14.454Z,28.02
2019-03-20T13:45:14.677Z,30.39
2019-03-20T13:50:18.173Z,29.62
2019-03-20T13:55:21.648Z,28.21
2019-03-20T14:00:25.280Z,28.48
2019-03-20T14:05:28.735Z,28.71
2019-03-20T14:10:32.256Z,29.14
2019-03-20T14:15:35.876Z,29.05
2019-03-20T14:20:39.378Z,27.86
2019-03-20T14:25:42.880Z,30.72
2019-03-20T14:30:46.412Z,28.59
2019-03-20T14:35:49.908Z,28.76
2019-03-20T14:40:53.438Z,27.97
2019-03-20T14:45:57.049Z,28.24
2019-03-20T14:51:00.725Z,27.92
2019-03-20T14:56:04.247Z,28.31
2019-03-20T15:01:07.868Z,27.53
2019-03-20T15:06:11.448Z,28.41
2019-03-20T15:11:15.093Z,28.79
2019-03-20T15:16:18.710Z,27.63
2019-03-20T15:21:22.286Z,28.88
2019-03-20T15:26:25.926Z,29.34
2019-03-20T15:31:29.556Z,29.64
2019-03-20T15:36:33.256Z,29.91
2019-03-20T15:41:36.900Z,30.28
2019-03-20T15:46:40.360Z,29.84
2019-03-20T15:51:44.060Z,29.96
2019-03-20T15:56:48.665Z,29.54
2019-03-20T16:01:57.676Z,29.62
2019-03-20T16:07:07.654Z,30.54
2019-03-20T16:12:16.852Z,31.14
2019-03-20T16:17:20.540Z,31.55
2019-03-20T16:22:25.107Z,31.04
2019-03-20T16:27:29.896Z,31.98
2019-03-20T16:32:33.514Z,32.60
2019-03-20T16:37:37.102Z,32.95
2019-03-20T16:42:40.692Z,33.03
2019-03-20T16:47:44.295Z,33.22
2019-03-20T16:52:48.001Z,33.68
2019-03-20T16:57:51.535Z,33.54
2019-03-20T17:02:55.079Z,35.31
2019-03-20T17:07:58.687Z,35.91
2019-03-20T17:13:02.303Z,36.59
2019-03-20T17:18:06.000Z,38.03
2019-03-20T17:23:09.564Z,37.38
2019-03-20T17:28:13.212Z,39.57
2019-03-20T17:33:16.785Z,42.49
2019-03-20T17:38:20.392Z,44.67
2019-03-20T17:43:23.922Z,43.77
2019-03-20T17:48:27.523Z,44.98
2019-03-20T17:53:31.111Z,45.49
2019-03-20T17:58:34.750Z,47.63
2019-03-20T18:03:38.556Z,48.83
2019-03-20T18:08:42.173Z,48.99
2019-03-20T18:13:45.801Z,48.44
2019-03-20T18:18:49.621Z,47.82
2019-03-20T18:23:53.229Z,52.35
2019-03-20T18:28:56.887Z,50.00
2019-03-20T18:34:00.603Z,50.08
2019-03-20T18:39:06.101Z,50.45
2019-03-20T18:44:09.748Z,51.10
2019-03-20T18:49:14.367Z,52.38
2019-03-20T18:54:18.371Z,53.25
2019-03-20T18:59:22.010Z,53.51
2019-03-20T19:04:25.590Z,53.71
2019-03-20T19:09:29.150Z,54.48
2019-03-20T19:14:32.803Z,56.27
2019-03-20T19:19:36.339Z,56.87
2019-03-20T19:24:39.904Z,57.41
2019-03-20T19:29:43.481Z,57.08
2019-03-20T19:34:47.137Z,55.61
2019-03-20T19:39:50.750Z,59.99
2019-03-20T19:44:54.341Z,56.31
2019-03-20T19:49:57.940Z,56.95
2019-03-20T19:55:01.676Z,58.13
2019-03-20T20:00:06.079Z,58.81
2019-03-20T20:05:15.618Z,59.38
2019-03-20T20:10:13.741Z,58.63
2019-03-20T20:15:19.283Z,58.80
2019-03-20T20:20:23.010Z,59.41
2019-03-20T20:25:26.619Z,59.85
2019-03-20T20:30:30.359Z,59.40
2019-03-20T20:35:34.274Z,59.88
2019-03-20T20:40:37.952Z,60.23
2019-03-20T20:45:41.730Z,60.27
2019-03-20T20:50:45.498Z,63.80
2019-03-20T20:55:49.076Z,60.93
2019-03-20T21:00:52.643Z,61.27
2019-03-20T21:05:57.347Z,61.95
2019-03-20T21:11:01.092Z,64.20
2019-03-20T21:37:57.448Z,62.66
2019-03-20T21:43:13.775Z,64.67
2019-03-20T22:48:41.567Z,64.89
2019-03-20T22:58:00.189Z,64.89
